Time;durP1;ratioP1;P1;durP2;ratioP2;P2;SDS_P1;SDS_P2;PMS_P1;PMS_P2;Temp;Humidity;BMP_temperature;BMP_pressure;BME280_temperature;BME280_humidity;BME280_pressure;Samples;Min_cycle;Max_cycle;Signal;HPM_P1;HPM_P2
2021/11/09 00:00:00;;;;;;;;;;;14.90;73.40;;;;;;4261745;27;19918;-71
2021/11/09 00:02:03;;;;;;;;;;;14.90;73.40;;;;;;4256158;27;19926;-69
2021/11/09 00:04:08;;;;;;;;;;;14.90;73.40;;;;;;4265174;27;19918;-66
2021/11/09 00:06:19;;;;;;;;;;;14.90;73.40;;;;;;4252636;27;19923;-67
2021/11/09 00:08:25;;;;;;;;;;;14.90;73.40;;;;;;4249719;27;19919;-68
2021/11/09 00:10:28;;;;;;;;;;;14.90;73.50;;;;;;4257959;27;19927;-69
2021/11/09 00:12:35;;;;;;;;;;;14.90;73.40;;;;;;4267166;27;19929;-68
2021/11/09 00:14:37;;;;;;;;;;;14.80;73.40;;;;;;4265569;27;19919;-72
2021/11/09 00:16:40;;;;;;;;;;;14.90;73.40;;;;;;4261043;27;20007;-71
2021/11/09 00:18:45;;;;;;;;;;;14.80;73.40;;;;;;4248239;27;20453;-70
2021/11/09 00:20:49;;;;;;;;;;;14.90;73.30;;;;;;4252828;27;19926;-69
2021/11/09 00:22:52;;;;;;;;;;;14.80;73.40;;;;;;4258202;27;19926;-74
2021/11/09 00:24:55;;;;;;;;;;;14.80;73.40;;;;;;4265915;27;19926;-68
2021/11/09 00:26:58;;;;;;;;;;;14.80;73.30;;;;;;4233840;27;20275;-71
2021/11/09 00:29:00;;;;;;;;;;;14.90;73.40;;;;;;4248071;27;20364;-68
2021/11/09 00:31:03;;;;;;;;;;;14.80;73.40;;;;;;4251802;27;19919;-68
2021/11/09 00:33:06;;;;;;;;;;;14.80;73.30;;;;;;4247769;27;19931;-68
2021/11/09 00:35:09;;;;;;;;;;;14.80;73.40;;;;;;4247775;27;19919;-67
2021/11/09 00:37:14;;;;;;;;;;;14.80;73.30;;;;;;4252232;27;20080;-69
2021/11/09 00:39:17;;;;;;;;;;;14.80;73.40;;;;;;4263995;27;19926;-72
2021/11/09 00:41:19;;;;;;;;;;;14.80;73.40;;;;;;4261313;27;20320;-73
2021/11/09 00:43:22;;;;;;;;;;;14.80;73.40;;;;;;4254996;27;20324;-69
2021/11/09 00:45:25;;;;;;;;;;;14.80;73.40;;;;;;4264741;27;19933;-70
2021/11/09 00:47:28;;;;;;;;;;;14.80;73.40;;;;;;4253326;27;20420;-68
2021/11/09 00:49:31;;;;;;;;;;;14.80;73.40;;;;;;4250240;27;19931;-70
2021/11/09 00:51:34;;;;;;;;;;;14.80;73.40;;;;;;4248971;27;19937;-72
2021/11/09 00:53:39;;;;;;;;;;;14.80;73.40;;;;;;4239649;27;19924;-74
2021/11/09 00:55:42;;;;;;;;;;;14.80;73.40;;;;;;4247337;27;19927;-68
2021/11/09 00:57:45;;;;;;;;;;;14.80;73.30;;;;;;4251428;27;20282;-73
2021/11/09 00:59:48;;;;;;;;;;;14.80;73.30;;;;;;4262353;27;19930;-73
2021/11/09 01:01:50;;;;;;;;;;;14.80;73.30;;;;;;4262442;27;19948;-70
2021/11/09 01:03:53;;;;;;;;;;;14.80;73.30;;;;;;4254029;27;20329;-73
2021/11/09 01:05:56;;;;;;;;;;;14.80;73.30;;;;;;4247828;27;19949;-73
2021/11/09 01:07:59;;;;;;;;;;;14.80;73.20;;;;;;4259734;27;19926;-68
2021/11/09 01:10:05;;;;;;;;;;;14.80;73.90;;;;;;4250131;27;20455;-73
2021/11/09 01:12:10;;;;;;;;;;;14.80;73.30;;;;;;4248222;27;20363;-72
2021/11/09 01:14:13;;;;;;;;;;;14.80;73.30;;;;;;4252691;27;19919;-73
2021/11/09 01:16:15;;;;;;;;;;;14.80;73.30;;;;;;4263867;27;19948;-72
2021/11/09 01:18:19;;;;;;;;;;;14.70;73.20;;;;;;4262456;27;19919;-70
2021/11/09 01:20:23;;;;;;;;;;;14.80;73.30;;;;;;4250094;27;19919;-68
2021/11/09 01:22:25;;;;;;;;;;;14.70;73.20;;;;;;4248021;27;19957;-70
2021/11/09 01:24:28;;;;;;;;;;;14.80;73.20;;;;;;4223335;28;20407;-71
2021/11/09 01:26:33;;;;;;;;;;;14.70;73.30;;;;;;4246832;27;19927;-68
2021/11/09 01:28:36;;;;;;;;;;;14.70;73.20;;;;;;4255787;27;19934;-73
2021/11/09 01:30:39;;;;;;;;;;;14.70;73.20;;;;;;4250201;27;19919;-70
2021/11/09 01:32:42;;;;;;;;;;;14.70;73.20;;;;;;4260003;27;19927;-68
2021/11/09 01:34:45;;;;;;;;;;;14.70;73.20;;;;;;4251843;27;20492;-73
2021/11/09 01:36:48;;;;;;;;;;;14.70;73.20;;;;;;4260484;27;19948;-72
2021/11/09 01:38:51;;;;;;;;;;;14.70;73.20;;;;;;4236528;27;20338;-69
2021/11/09 01:40:54;;;;;;;;;;;14.70;73.20;;;;;;4251148;27;19926;-70
2021/11/09 01:42:59;;;;;;;;;;;14.80;73.20;;;;;;4229780;27;19919;-69
2021/11/09 01:45:02;;;;;;;;;;;14.70;73.20;;;;;;4257889;27;19919;-71
2021/11/09 01:47:05;;;;;;;;;;;14.70;73.30;;;;;;4247807;27;19923;-70
2021/11/09 01:49:08;;;;;;;;;;;14.70;73.10;;;;;;4252138;27;19919;-72
2021/11/09 01:51:12;;;;;;;;;;;14.70;73.20;;;;;;4259205;27;19923;-68
2021/11/09 01:53:15;;;;;;;;;;;14.70;73.10;;;;;;4261176;27;20337;-74
2021/11/09 01:55:19;;;;;;;;;;;14.70;73.10;;;;;;4257993;27;19925;-73
2021/11/09 01:57:21;;;;;;;;;;;14.70;73.10;;;;;;4246531;27;20391;-71
2021/11/09 01:59:29;;;;;;;;;;;14.70;73.10;;;;;;4253460;27;19923;-70
2021/11/09 02:01:33;;;;;;;;;;;14.70;73.10;;;;;;4251130;27;19920;-71
2021/11/09 02:03:38;;;;;;;;;;;14.70;73.10;;;;;;4247644;27;19928;-69
2021/11/09 02:05:42;;;;;;;;;;;14.70;73.10;;;;;;4257588;27;19919;-72
2021/11/09 02:07:45;;;;;;;;;;;14.70;73.10;;;;;;4246750;28;19923;-73
2021/11/09 02:09:48;;;;;;;;;;;14.70;73.10;;;;;;4253441;27;20418;-71
2021/11/09 02:11:51;;;;;;;;;;;14.70;73.20;;;;;;4251471;27;19980;-73
2021/11/09 02:13:54;;;;;;;;;;;14.70;73.10;;;;;;4247972;27;20379;-72
2021/11/09 02:15:58;;;;;;;;;;;14.70;73.10;;;;;;4258574;27;20003;-74
2021/11/09 02:18:01;;;;;;;;;;;14.70;73.10;;;;;;4247052;27;20279;-71
2021/11/09 02:20:04;;;;;;;;;;;14.70;73.20;;;;;;4251708;27;20325;-70
2021/11/09 02:22:09;;;;;;;;;;;14.70;73.10;;;;;;4260904;27;20328;-71
2021/11/09 02:24:11;;;;;;;;;;;14.70;73.00;;;;;;4265108;27;19922;-69
2021/11/09 02:26:15;;;;;;;;;;;14.70;73.00;;;;;;4250287;27;20317;-72
2021/11/09 02:28:18;;;;;;;;;;;14.60;73.10;;;;;;4248141;27;19919;-71
2021/11/09 02:30:25;;;;;;;;;;;14.70;73.10;;;;;;4256065;27;19919;-70
2021/11/09 02:32:28;;;;;;;;;;;14.70;73.10;;;;;;4252523;27;19919;-71
2021/11/09 02:34:31;;;;;;;;;;;14.70;73.10;;;;;;4255771;27;19919;-73
2021/11/09 02:36:34;;;;;;;;;;;14.70;73.10;;;;;;4266043;27;19984;-73
2021/11/09 02:38:38;;;;;;;;;;;14.60;73.00;;;;;;4254625;27;19919;-69
2021/11/09 02:40:41;;;;;;;;;;;14.60;73.10;;;;;;4259774;27;19925;-74
2021/11/09 02:42:47;;;;;;;;;;;14.60;73.10;;;;;;4260039;27;19948;-70
2021/11/09 02:44:51;;;;;;;;;;;14.60;73.00;;;;;;4254211;27;19919;-68
2021/11/09 02:46:57;;;;;;;;;;;14.60;73.00;;;;;;4255216;27;19923;-72
2021/11/09 02:51:17;;;;;;;;;;;14.60;73.00;;;;;;4259908;27;19919;-71
2021/11/09 02:55:32;;;;;;;;;;;14.60;73.00;;;;;;4254548;27;19991;-72
2021/11/09 02:58:00;;;;;;;;;;;14.60;73.00;;;;;;4264200;27;19919;-72
2021/11/09 03:00:09;;;;;;;;;;;14.60;72.90;;;;;;4250137;27;19919;-73
2021/11/09 03:06:44;;;;;;;;;;;14.60;72.90;;;;;;4255167;27;19919;-69
2021/11/09 03:08:59;;;;;;;;;;;14.60;72.90;;;;;;4254199;27;19988;-69
2021/11/09 03:11:04;;;;;;;;;;;14.60;72.90;;;;;;4252944;27;19923;-72
2021/11/09 03:13:07;;;;;;;;;;;14.60;72.90;;;;;;4255584;27;19923;-73
2021/11/09 03:15:11;;;;;;;;;;;14.60;72.90;;;;;;4248810;27;19920;-70
2021/11/09 03:17:18;;;;;;;;;;;14.60;72.90;;;;;;4261882;27;19919;-65
2021/11/09 03:40:29;;;;;;;;;;;14.50;72.80;;;;;;4263731;27;19948;-73
2021/11/09 03:45:05;;;;;;;;;;;14.50;72.80;;;;;;4260068;27;19927;-69
2021/11/09 03:47:10;;;;;;;;;;;14.50;72.60;;;;;;4263972;27;19972;-70
2021/11/09 03:49:14;;;;;;;;;;;14.50;72.70;;;;;;4255469;27;19965;-71
2021/11/09 03:51:17;;;;;;;;;;;14.50;72.70;;;;;;4248687;27;19920;-71
2021/11/09 03:53:23;;;;;;;;;;;14.50;72.70;;;;;;4256870;27;19926;-73
2021/11/09 03:56:13;;;;;;;;;;;14.50;72.70;;;;;;4253761;27;19923;-71
2021/11/09 03:58:04;;;;;;;;;;;14.50;72.60;;;;;;4241303;27;19927;-72
2021/11/09 04:00:30;;;;;;;;;;;14.50;72.60;;;;;;4256628;27;19947;-69
2021/11/09 04:02:58;;;;;;;;;;;14.50;72.70;;;;;;4250472;27;19930;-71
2021/11/09 04:05:05;;;;;;;;;;;14.50;72.60;;;;;;4256519;27;19918;-71
2021/11/09 04:07:16;;;;;;;;;;;14.50;72.50;;;;;;4266281;27;19953;-69
2021/11/09 04:11:31;;;;;;;;;;;14.50;72.50;;;;;;4264651;27;19919;-70
2021/11/09 04:18:01;;;;;;;;;;;14.50;72.50;;;;;;4264692;27;20259;-70
2021/11/09 04:20:54;;;;;;;;;;;14.50;72.60;;;;;;4248011;27;19934;-73
2021/11/09 04:24:51;;;;;;;;;;;14.50;72.50;;;;;;4256373;27;19922;-69
2021/11/09 04:32:06;;;;;;;;;;;14.50;72.50;;;;;;4254692;27;19920;-70
2021/11/09 04:53:43;;;;;;;;;;;14.40;72.40;;;;;;4262360;27;19923;-69
2021/11/09 05:03:03;;;;;;;;;;;14.40;72.30;;;;;;4224989;27;19979;-67
2021/11/09 05:11:39;;;;;;;;;;;14.40;72.30;;;;;;4252462;27;19919;-68
2021/11/09 05:13:42;;;;;;;;;;;14.40;72.30;;;;;;4264049;27;19923;-74
2021/11/09 05:15:45;;;;;;;;;;;14.40;72.30;;;;;;4258662;27;19919;-70
2021/11/09 05:17:47;;;;;;;;;;;14.40;72.30;;;;;;4254466;27;19926;-72
2021/11/09 05:19:51;;;;;;;;;;;14.40;72.30;;;;;;4248908;27;20303;-71
2021/11/09 05:21:55;;;;;;;;;;;14.40;72.30;;;;;;4253208;27;19923;-69
2021/11/09 05:23:57;;;;;;;;;;;14.40;72.20;;;;;;4264520;27;19995;-70
2021/11/09 05:26:00;;;;;;;;;;;14.40;72.20;;;;;;4259794;27;19972;-73
2021/11/09 05:28:05;;;;;;;;;;;14.40;72.20;;;;;;4255919;27;19919;-71
2021/11/09 05:30:08;;;;;;;;;;;14.40;72.20;;;;;;4264093;27;20332;-72
2021/11/09 05:32:11;;;;;;;;;;;14.40;72.30;;;;;;4249092;27;19927;-71
2021/11/09 05:34:15;;;;;;;;;;;14.40;72.20;;;;;;4263685;27;19964;-73
2021/11/09 05:36:20;;;;;;;;;;;14.30;72.10;;;;;;4259425;27;19993;-73
2021/11/09 05:38:34;;;;;;;;;;;14.40;72.20;;;;;;4255332;27;19919;-73
2021/11/09 05:40:40;;;;;;;;;;;14.40;72.10;;;;;;4262806;27;19963;-71
2021/11/09 05:42:44;;;;;;;;;;;14.40;72.70;;;;;;4258232;27;19919;-70
2021/11/09 05:44:47;;;;;;;;;;;14.40;72.10;;;;;;4246739;27;19923;-72
2021/11/09 05:46:50;;;;;;;;;;;14.30;72.10;;;;;;4252467;27;20403;-69
2021/11/09 05:48:52;;;;;;;;;;;14.30;72.00;;;;;;4260605;27;20414;-71
2021/11/09 05:50:55;;;;;;;;;;;14.30;72.00;;;;;;4246863;27;19919;-73
2021/11/09 05:52:59;;;;;;;;;;;14.30;72.00;;;;;;4251337;27;19919;-69
2021/11/09 05:55:03;;;;;;;;;;;14.30;72.00;;;;;;4263727;27;19919;-68
2021/11/09 05:57:05;;;;;;;;;;;14.30;72.00;;;;;;4258134;27;19924;-71
2021/11/09 05:59:08;;;;;;;;;;;14.30;71.90;;;;;;4256278;27;20395;-74
2021/11/09 06:01:11;;;;;;;;;;;14.30;72.00;;;;;;4264184;27;19926;-73
2021/11/09 06:03:14;;;;;;;;;;;14.30;71.90;;;;;;4250713;27;19928;-74
2021/11/09 06:05:17;;;;;;;;;;;14.30;71.90;;;;;;4264558;27;20275;-71
2021/11/09 06:07:20;;;;;;;;;;;14.30;71.90;;;;;;4258324;27;19923;-73
2021/11/09 06:09:24;;;;;;;;;;;14.30;71.90;;;;;;4254463;27;19919;-71
2021/11/09 06:11:27;;;;;;;;;;;14.30;71.90;;;;;;4246035;28;19980;-73
2021/11/09 06:13:29;;;;;;;;;;;14.30;72.00;;;;;;4258430;27;20312;-73
2021/11/09 06:15:32;;;;;;;;;;;14.30;71.90;;;;;;4246596;28;19984;-71
2021/11/09 06:17:35;;;;;;;;;;;14.30;71.90;;;;;;4247561;27;20482;-71
2021/11/09 06:19:37;;;;;;;;;;;14.30;71.90;;;;;;4235955;27;19919;-70
2021/11/09 06:21:40;;;;;;;;;;;14.30;71.90;;;;;;4263423;27;19926;-72
2021/11/09 06:23:43;;;;;;;;;;;14.30;71.90;;;;;;4258550;27;20352;-73
2021/11/09 06:25:47;;;;;;;;;;;14.30;71.90;;;;;;4247048;27;19926;-70
2021/11/09 06:27:50;;;;;;;;;;;14.30;71.90;;;;;;4248812;27;19923;-71
2021/11/09 06:29:53;;;;;;;;;;;14.20;71.80;;;;;;4255986;27;19920;-69
2021/11/09 06:31:56;;;;;;;;;;;14.20;71.80;;;;;;4246062;27;19927;-72
2021/11/09 06:33:59;;;;;;;;;;;14.20;71.80;;;;;;4250476;27;19919;-72
2021/11/09 06:36:01;;;;;;;;;;;14.30;71.80;;;;;;4261233;27;19927;-74
2021/11/09 06:38:04;;;;;;;;;;;14.30;71.80;;;;;;4250483;27;20407;-73
2021/11/09 06:40:07;;;;;;;;;;;14.30;71.80;;;;;;4257401;27;20415;-73
2021/11/09 06:42:12;;;;;;;;;;;14.20;71.80;;;;;;4247136;28;20260;-69
2021/11/09 06:44:15;;;;;;;;;;;14.30;71.80;;;;;;4257335;27;20718;-70
2021/11/09 06:46:17;;;;;;;;;;;14.20;71.80;;;;;;4249892;27;19920;-67
2021/11/09 06:48:20;;;;;;;;;;;14.20;71.70;;;;;;4250814;27;19919;-65
2021/11/09 06:50:24;;;;;;;;;;;14.20;71.70;;;;;;4253332;27;19923;-66
2021/11/09 06:52:26;;;;;;;;;;;14.20;71.70;;;;;;4251194;28;19920;-69
2021/11/09 06:54:29;;;;;;;;;;;14.20;71.70;;;;;;4252282;27;19949;-65
2021/11/09 06:56:32;;;;;;;;;;;14.20;71.70;;;;;;4246203;28;19935;-65
2021/11/09 06:58:36;;;;;;;;;;;14.20;71.60;;;;;;4247484;27;20402;-66
2021/11/09 07:00:40;;;;;;;;;;;14.20;71.70;;;;;;4257649;27;20329;-70
2021/11/09 07:02:43;;;;;;;;;;;14.20;71.70;;;;;;4245958;28;19920;-73
2021/11/09 07:04:45;;;;;;;;;;;14.20;71.60;;;;;;4257982;27;19968;-73
2021/11/09 07:06:48;;;;;;;;;;;14.20;71.60;;;;;;4262287;27;19919;-66
2021/11/09 07:08:52;;;;;;;;;;;14.20;71.50;;;;;;4263534;27;20305;-71
2021/11/09 07:10:54;;;;;;;;;;;14.20;71.90;;;;;;4253175;27;19919;-70
2021/11/09 07:12:57;;;;;;;;;;;14.20;71.70;;;;;;4250305;27;19930;-69
2021/11/09 07:15:01;;;;;;;;;;;14.30;71.30;;;;;;4255677;27;19923;-70
2021/11/09 07:17:04;;;;;;;;;;;14.30;71.30;;;;;;4252962;27;20008;-74
2021/11/09 07:19:08;;;;;;;;;;;14.30;71.30;;;;;;4258496;27;20232;-69
2021/11/09 07:21:10;;;;;;;;;;;14.30;71.50;;;;;;4264436;27;19919;-71
2021/11/09 07:23:13;;;;;;;;;;;14.40;71.10;;;;;;4265732;27;19919;-69
2021/11/09 07:25:16;;;;;;;;;;;14.50;71.00;;;;;;4257802;27;20287;-66
2021/11/09 07:27:19;;;;;;;;;;;14.50;71.10;;;;;;4260831;27;19919;-65
2021/11/09 07:29:22;;;;;;;;;;;14.50;71.20;;;;;;4264725;27;19926;-70
2021/11/09 07:31:27;;;;;;;;;;;14.50;71.10;;;;;;4263291;27;19923;-67
2021/11/09 07:33:30;;;;;;;;;;;14.50;71.30;;;;;;4265006;27;19926;-70
2021/11/09 07:35:33;;;;;;;;;;;14.60;71.30;;;;;;4258098;27;20281;-68
2021/11/09 07:37:36;;;;;;;;;;;14.60;71.90;;;;;;4259672;27;20310;-70
2021/11/09 07:39:39;;;;;;;;;;;14.60;71.30;;;;;;4264865;27;20410;-66
2021/11/09 07:41:43;;;;;;;;;;;14.70;71.30;;;;;;4260408;27;19981;-68
2021/11/09 07:43:46;;;;;;;;;;;14.70;70.90;;;;;;4249458;27;20332;-71
2021/11/09 07:45:49;;;;;;;;;;;14.80;70.40;;;;;;4255444;27;19960;-67
2021/11/09 07:47:57;;;;;;;;;;;14.80;70.10;;;;;;4257362;27;19925;-72
2021/11/09 07:49:59;;;;;;;;;;;14.80;70.20;;;;;;4259111;27;19919;-66
2021/11/09 07:52:02;;;;;;;;;;;14.90;70.10;;;;;;4263714;27;20348;-70
2021/11/09 07:54:06;;;;;;;;;;;14.90;70.00;;;;;;4268430;27;19926;-69
2021/11/09 07:56:20;;;;;;;;;;;15.00;69.90;;;;;;4264280;27;20418;-71
2021/11/09 07:58:32;;;;;;;;;;;15.00;69.90;;;;;;4258607;27;19945;-75
2021/11/09 08:00:35;;;;;;;;;;;15.00;69.90;;;;;;4256062;27;19923;-73
2021/11/09 08:02:48;;;;;;;;;;;15.00;70.00;;;;;;4259062;27;19926;-77
2021/11/09 08:04:56;;;;;;;;;;;15.00;69.90;;;;;;4270986;27;19975;-77
2021/11/09 08:07:05;;;;;;;;;;;15.00;69.70;;;;;;4261411;27;20370;-71
2021/11/09 08:09:12;;;;;;;;;;;15.10;69.60;;;;;;4268911;27;19919;-71
2021/11/09 08:11:14;;;;;;;;;;;15.10;69.60;;;;;;4266178;27;19919;-68
2021/11/09 08:13:17;;;;;;;;;;;15.10;69.50;;;;;;4262821;27;19923;-68
2021/11/09 08:15:20;;;;;;;;;;;15.10;69.40;;;;;;4253159;27;19964;-70
2021/11/09 08:17:22;;;;;;;;;;;15.10;69.40;;;;;;4261299;27;20318;-74
2021/11/09 08:19:25;;;;;;;;;;;15.20;69.50;;;;;;4269278;27;19919;-66
2021/11/09 08:21:30;;;;;;;;;;;15.20;69.50;;;;;;4263433;27;19920;-71
2021/11/09 08:23:33;;;;;;;;;;;15.20;69.50;;;;;;4254038;27;20317;-73
2021/11/09 08:25:36;;;;;;;;;;;15.20;69.60;;;;;;4263948;27;19930;-68
2021/11/09 08:27:39;;;;;;;;;;;15.20;69.60;;;;;;4260064;27;20279;-68
2021/11/09 08:29:49;;;;;;;;;;;15.30;69.70;;;;;;4264602;27;19926;-72
2021/11/09 08:31:52;;;;;;;;;;;15.30;69.60;;;;;;4261907;27;19919;-74
2021/11/09 08:33:55;;;;;;;;;;;15.30;69.60;;;;;;4258649;27;20406;-66
2021/11/09 08:36:02;;;;;;;;;;;15.30;69.60;;;;;;4247752;27;20353;-67
2021/11/09 08:38:07;;;;;;;;;;;15.30;69.50;;;;;;4258287;27;19919;-73
2021/11/09 08:40:15;;;;;;;;;;;15.40;69.50;;;;;;4249150;27;20481;-67
2021/11/09 08:42:35;;;;;;;;;;;15.40;69.50;;;;;;4251429;27;19930;-69
2021/11/09 08:44:51;;;;;;;;;;;15.40;69.60;;;;;;4256397;27;19922;-68
2021/11/09 08:46:57;;;;;;;;;;;15.40;69.70;;;;;;4263096;27;20420;-74
2021/11/09 08:48:59;;;;;;;;;;;15.40;69.80;;;;;;4241359;27;19982;-73
2021/11/09 08:51:07;;;;;;;;;;;15.50;69.80;;;;;;4248998;27;19919;-73
2021/11/09 08:53:18;;;;;;;;;;;15.50;69.80;;;;;;4256734;27;19919;-70
2021/11/09 08:55:43;;;;;;;;;;;15.50;69.80;;;;;;4255117;27;20331;-73
2021/11/09 09:04:34;;;;;;;;;;;15.60;69.90;;;;;;4258864;27;19927;-70
2021/11/09 09:06:37;;;;;;;;;;;15.60;69.80;;;;;;4247375;27;19919;-73
2021/11/09 09:08:41;;;;;;;;;;;15.60;69.80;;;;;;4252409;27;19923;-75
2021/11/09 09:10:44;;;;;;;;;;;15.60;69.80;;;;;;4262835;27;19918;-70
2021/11/09 09:12:47;;;;;;;;;;;15.70;69.80;;;;;;4266564;27;19923;-73
2021/11/09 09:14:50;;;;;;;;;;;15.70;69.70;;;;;;4249756;27;20287;-69
2021/11/09 09:16:54;;;;;;;;;;;15.70;69.70;;;;;;4264201;27;19942;-68
2021/11/09 09:18:59;;;;;;;;;;;15.70;69.60;;;;;;4252251;27;19919;-68
2021/11/09 09:21:14;;;;;;;;;;;15.70;69.50;;;;;;4263900;27;19919;-75
2021/11/09 09:23:20;;;;;;;;;;;15.70;69.40;;;;;;4262342;27;20303;-73
2021/11/09 09:29:58;;;;;;;;;;;15.70;69.40;;;;;;4259006;27;20405;-74
2021/11/09 09:53:44;;;;;;;;;;;16.00;69.40;;;;;;4267565;27;19919;-74
2021/11/09 09:55:51;;;;;;;;;;;16.00;69.30;;;;;;4257719;27;19934;-71
2021/11/09 09:57:55;;;;;;;;;;;15.90;69.10;;;;;;4252209;27;20394;-74
2021/11/09 09:59:58;;;;;;;;;;;15.90;69.10;;;;;;4252934;27;20352;-75
2021/11/09 10:02:09;;;;;;;;;;;15.90;69.10;;;;;;4247676;27;20492;-74
2021/11/09 10:04:27;;;;;;;;;;;15.90;69.20;;;;;;4256407;27;19923;-75
2021/11/09 10:06:42;;;;;;;;;;;15.90;69.20;;;;;;4253673;27;19931;-70
2021/11/09 10:08:50;;;;;;;;;;;15.90;69.20;;;;;;4260440;27;19939;-71
2021/11/09 10:10:53;;;;;;;;;;;15.90;69.20;;;;;;4259786;27;19919;-67
2021/11/09 10:12:59;;;;;;;;;;;15.80;69.00;;;;;;4260899;27;19926;-72
2021/11/09 10:15:04;;;;;;;;;;;15.80;69.10;;;;;;4246932;28;19931;-75
2021/11/09 10:17:11;;;;;;;;;;;15.80;69.10;;;;;;4252301;27;19919;-65
2021/11/09 10:19:30;;;;;;;;;;;15.80;68.90;;;;;;4268153;27;19920;-72
2021/11/09 10:21:35;;;;;;;;;;;15.90;68.90;;;;;;4254904;27;19929;-72
2021/11/09 10:23:38;;;;;;;;;;;15.80;69.00;;;;;;4259753;27;19924;-69
2021/11/09 10:25:42;;;;;;;;;;;15.90;69.00;;;;;;4248526;27;20329;-68
2021/11/09 10:27:50;;;;;;;;;;;15.90;69.00;;;;;;4256907;27;19919;-71
2021/11/09 10:29:56;;;;;;;;;;;15.90;68.90;;;;;;4247083;28;19926;-69
2021/11/09 10:32:07;;;;;;;;;;;15.90;68.90;;;;;;4253705;27;19924;-67
2021/11/09 10:34:20;;;;;;;;;;;15.90;68.80;;;;;;4248217;28;20495;-69
2021/11/09 10:36:25;;;;;;;;;;;15.90;68.60;;;;;;4232822;28;19920;-65
2021/11/09 10:38:30;;;;;;;;;;;15.90;68.50;;;;;;4254380;27;19930;-72
2021/11/09 10:40:35;;;;;;;;;;;15.90;68.80;;;;;;4246143;27;19919;-69
2021/11/09 10:42:38;;;;;;;;;;;15.90;68.80;;;;;;4253785;27;19926;-71
2021/11/09 10:44:42;;;;;;;;;;;15.90;68.80;;;;;;4246544;28;19939;-71
2021/11/09 10:46:47;;;;;;;;;;;15.90;68.90;;;;;;4250782;27;19920;-67
2021/11/09 10:48:49;;;;;;;;;;;15.90;68.90;;;;;;4249306;27;19923;-69
2021/11/09 10:50:55;;;;;;;;;;;16.00;69.20;;;;;;4252425;27;19919;-66
2021/11/09 10:53:00;;;;;;;;;;;16.00;69.30;;;;;;4261305;27;19919;-68
2021/11/09 10:57:12;;;;;;;;;;;15.90;69.20;;;;;;4254196;27;19922;-69
2021/11/09 10:59:23;;;;;;;;;;;16.00;69.30;;;;;;4260969;27;19927;-69
2021/11/09 11:03:38;;;;;;;;;;;16.10;69.40;;;;;;4260192;27;19923;-65
2021/11/09 11:05:40;;;;;;;;;;;16.10;68.80;;;;;;4248417;27;19931;-66
2021/11/09 11:07:49;;;;;;;;;;;16.00;68.60;;;;;;4255854;27;20365;-68
2021/11/09 11:09:58;;;;;;;;;;;16.00;68.90;;;;;;4262369;27;20347;-65
2021/11/09 11:12:06;;;;;;;;;;;16.00;68.80;;;;;;4264709;27;20391;-68
2021/11/09 11:14:10;;;;;;;;;;;16.10;68.70;;;;;;4254764;27;19933;-69
2021/11/09 11:16:14;;;;;;;;;;;16.10;68.50;;;;;;4265472;27;19919;-67
2021/11/09 11:18:26;;;;;;;;;;;16.10;68.20;;;;;;4252828;27;20307;-69
2021/11/09 11:20:30;;;;;;;;;;;16.10;68.30;;;;;;4263653;27;19921;-67
2021/11/09 11:22:33;;;;;;;;;;;16.10;68.00;;;;;;4263120;27;19919;-66
2021/11/09 11:24:38;;;;;;;;;;;16.10;68.10;;;;;;4252652;27;19919;-71
2021/11/09 11:26:41;;;;;;;;;;;16.10;68.20;;;;;;4265107;27;19938;-66
2021/11/09 11:28:46;;;;;;;;;;;16.10;68.50;;;;;;4260499;27;19919;-67
2021/11/09 11:30:49;;;;;;;;;;;16.10;68.20;;;;;;4250043;27;20398;-67
2021/11/09 11:32:52;;;;;;;;;;;16.10;68.20;;;;;;4260487;27;20359;-69
2021/11/09 11:34:55;;;;;;;;;;;16.10;67.60;;;;;;4261030;27;20321;-68
2021/11/09 11:37:00;;;;;;;;;;;16.10;67.50;;;;;;4249752;27;19927;-68
2021/11/09 11:39:04;;;;;;;;;;;16.10;67.40;;;;;;4258660;27;20437;-66
2021/11/09 11:41:07;;;;;;;;;;;16.10;67.70;;;;;;4256523;27;19919;-68
2021/11/09 11:43:10;;;;;;;;;;;16.20;67.10;;;;;;4262346;27;19938;-69
2021/11/09 11:45:14;;;;;;;;;;;16.10;67.10;;;;;;4256281;27;19919;-67
2021/11/09 11:47:21;;;;;;;;;;;16.10;67.10;;;;;;4256358;27;19919;-67
2021/11/09 11:49:25;;;;;;;;;;;16.10;67.00;;;;;;4253890;27;19950;-70
2021/11/09 11:51:30;;;;;;;;;;;16.10;66.80;;;;;;4257167;27;20539;-70
2021/11/09 11:53:42;;;;;;;;;;;16.10;66.60;;;;;;4236622;27;20450;-69
2021/11/09 11:55:48;;;;;;;;;;;16.10;66.80;;;;;;4241129;27;19919;-67
2021/11/09 11:57:52;;;;;;;;;;;16.20;66.70;;;;;;4256116;27;20306;-68
2021/11/09 11:59:55;;;;;;;;;;;16.20;67.00;;;;;;4254104;27;19926;-68
2021/11/09 12:01:59;;;;;;;;;;;16.10;67.10;;;;;;4257007;27;19919;-69
2021/11/09 12:04:07;;;;;;;;;;;16.10;67.10;;;;;;4257985;27;20349;-69
2021/11/09 12:06:25;;;;;;;;;;;16.20;67.20;;;;;;4258334;27;19926;-67
2021/11/09 12:08:35;;;;;;;;;;;16.20;66.90;;;;;;4255709;27;19926;-67
2021/11/09 12:10:49;;;;;;;;;;;16.20;66.30;;;;;;4254135;27;19919;-68
2021/11/09 12:12:59;;;;;;;;;;;16.20;66.20;;;;;;4263617;27;19933;-67
2021/11/09 12:15:03;;;;;;;;;;;16.20;66.50;;;;;;4258348;27;20033;-69
2021/11/09 12:17:08;;;;;;;;;;;16.20;66.50;;;;;;4259049;27;19923;-71
2021/11/09 12:19:35;;;;;;;;;;;16.20;66.70;;;;;;4266015;27;19931;-69
2021/11/09 12:21:39;;;;;;;;;;;16.30;66.50;;;;;;4238722;27;19919;-69
2021/11/09 12:23:45;;;;;;;;;;;16.30;66.30;;;;;;4258099;27;19927;-68
2021/11/09 12:25:57;;;;;;;;;;;16.30;66.40;;;;;;4257494;27;20062;-69
2021/11/09 12:28:01;;;;;;;;;;;16.30;66.50;;;;;;4260552;27;19919;-67
2021/11/09 12:30:04;;;;;;;;;;;16.40;66.70;;;;;;4259112;27;19920;-70
2021/11/09 12:32:37;;;;;;;;;;;16.40;66.60;;;;;;4262308;27;19918;-70
2021/11/09 12:34:57;;;;;;;;;;;16.40;66.50;;;;;;4193391;28;19935;-65
2021/11/09 12:37:14;;;;;;;;;;;16.40;66.80;;;;;;4229642;27;20469;-68
2021/11/09 12:39:19;;;;;;;;;;;16.40;66.40;;;;;;4262665;27;19926;-66
2021/11/09 12:41:27;;;;;;;;;;;16.40;65.80;;;;;;4241730;27;19930;-66
2021/11/09 12:43:43;;;;;;;;;;;16.40;65.50;;;;;;4247573;27;19920;-73
2021/11/09 12:45:48;;;;;;;;;;;16.50;65.30;;;;;;4252283;27;19926;-72
2021/11/09 12:47:56;;;;;;;;;;;16.50;65.30;;;;;;4257799;27;19923;-71
2021/11/09 12:50:00;;;;;;;;;;;16.50;64.80;;;;;;4248194;27;19945;-71
2021/11/09 12:52:03;;;;;;;;;;;16.40;64.60;;;;;;4260631;27;20422;-70
2021/11/09 12:54:09;;;;;;;;;;;16.50;64.90;;;;;;4255479;27;20328;-71
2021/11/09 12:56:13;;;;;;;;;;;16.50;64.80;;;;;;4261402;27;19922;-70
2021/11/09 12:58:19;;;;;;;;;;;16.50;64.70;;;;;;4253703;27;19919;-74
2021/11/09 13:00:28;;;;;;;;;;;16.50;64.30;;;;;;4248927;27;19972;-73
2021/11/09 13:02:40;;;;;;;;;;;16.50;64.00;;;;;;4258393;27;19941;-72
2021/11/09 13:08:57;;;;;;;;;;;16.60;64.60;;;;;;4260431;27;20294;-68
2021/11/09 13:11:00;;;;;;;;;;;16.60;64.10;;;;;;4262102;27;19927;-68
2021/11/09 13:13:02;;;;;;;;;;;16.60;63.80;;;;;;4260263;27;19927;-70
2021/11/09 13:15:08;;;;;;;;;;;16.60;63.60;;;;;;4262241;27;21038;-70
2021/11/09 13:17:13;;;;;;;;;;;16.60;63.80;;;;;;4256937;27;19930;-68
2021/11/09 13:19:18;;;;;;;;;;;16.60;63.70;;;;;;4263340;27;19971;-70
2021/11/09 13:21:26;;;;;;;;;;;16.70;63.90;;;;;;4256703;27;19919;-69
2021/11/09 13:23:31;;;;;;;;;;;16.60;63.80;;;;;;4257505;27;20290;-72
2021/11/09 13:25:34;;;;;;;;;;;16.70;64.20;;;;;;4260936;27;20415;-72
2021/11/09 13:27:41;;;;;;;;;;;16.70;64.40;;;;;;4249986;27;19926;-71
2021/11/09 13:29:47;;;;;;;;;;;16.70;64.00;;;;;;4259613;27;19922;-70
2021/11/09 13:31:51;;;;;;;;;;;16.70;63.90;;;;;;4257813;27;20482;-68
2021/11/09 13:33:53;;;;;;;;;;;16.70;63.70;;;;;;4252581;27;19942;-70
2021/11/09 13:35:57;;;;;;;;;;;16.70;63.70;;;;;;4263722;27;19925;-64
2021/11/09 13:38:07;;;;;;;;;;;16.80;63.80;;;;;;4259562;27;19919;-69
2021/11/09 13:40:10;;;;;;;;;;;16.80;63.30;;;;;;4247823;27;19920;-66
2021/11/09 13:42:13;;;;;;;;;;;16.80;63.20;;;;;;4230104;27;19934;-71
2021/11/09 13:44:16;;;;;;;;;;;16.80;62.80;;;;;;4259132;27;20417;-67
2021/11/09 13:46:20;;;;;;;;;;;16.80;62.60;;;;;;4229318;28;19973;-72
2021/11/09 13:48:26;;;;;;;;;;;16.80;62.90;;;;;;4254574;27;20268;-71
2021/11/09 13:50:29;;;;;;;;;;;16.80;63.00;;;;;;4248537;27;19927;-69
2021/11/09 13:52:32;;;;;;;;;;;16.80;62.90;;;;;;4247036;27;20284;-73
2021/11/09 13:54:40;;;;;;;;;;;16.80;63.40;;;;;;4253164;27;20294;-71
2021/11/09 13:56:46;;;;;;;;;;;16.90;63.00;;;;;;4262822;27;19974;-70
2021/11/09 13:58:53;;;;;;;;;;;16.80;62.80;;;;;;4233375;27;19924;-71
2021/11/09 14:01:02;;;;;;;;;;;16.90;62.30;;;;;;4261653;27;20296;-72
2021/11/09 14:03:12;;;;;;;;;;;16.90;62.60;;;;;;4259407;27;20460;-72
2021/11/09 14:07:54;;;;;;;;;;;16.90;62.50;;;;;;4261535;27;19919;-65
2021/11/09 14:16:49;;;;;;;;;;;17.00;62.60;;;;;;4270762;27;19926;-69
2021/11/09 14:18:52;;;;;;;;;;;17.00;62.50;;;;;;4258138;27;20378;-70